Time;durP1;ratioP1;P1;durP2;ratioP2;P2;SDS_P1;SDS_P2;PMS_P1;PMS_P2;Temp;Humidity;BMP_temperature;BMP_pressure;BME280_temperature;BME280_humidity;BME280_pressure;Samples;Min_cycle;Max_cycle;Signal;HPM_P1;HPM_P2
2021/11/30 00:01:43;;;;;;;11.88;8.10;;;;;;;;;;5014659;28;20855;-84
2021/11/30 00:04:10;;;;;;;13.00;8.77;;;;;;;;;;5013953;28;20752;-84
2021/11/30 00:06:37;;;;;;;10.15;6.75;;;;;;;;;;5023709;28;20410;-84
2021/11/30 00:09:23;;;;;;;7.65;5.95;;;;;;;;;;5027150;28;20419;-84
2021/11/30 00:11:49;;;;;;;9.27;5.93;;;;;;;;;;5026317;28;20496;-84
2021/11/30 00:14:16;;;;;;;7.45;6.20;;;;;;;;;;5026937;28;20408;-84
2021/11/30 00:16:43;;;;;;;7.57;5.85;;;;;;;;;;5024950;28;20413;-84
2021/11/30 00:19:09;;;;;;;7.35;5.15;;;;;;;;;;5025886;28;20433;-84
2021/11/30 00:21:36;;;;;;;6.95;4.60;;;;;;;;;;5026418;28;20416;-84
2021/11/30 00:24:05;;;;;;;6.05;4.45;;;;;;;;;;5014220;28;20408;-84
2021/11/30 00:26:32;;;;;;;4.97;4.35;;;;;;;;;;5019862;28;20422;-84
2021/11/30 00:28:59;;;;;;;6.60;4.03;;;;;;;;;;5022674;28;20780;-84
2021/11/30 00:31:26;;;;;;;6.32;4.88;;;;;;;;;;5031930;28;20408;-83
2021/11/30 00:33:52;;;;;;;6.15;4.43;;;;;;;;;;5021554;28;20890;-84
2021/11/30 00:36:20;;;;;;;5.90;4.38;;;;;;;;;;5021020;28;20418;-84
2021/11/30 00:38:47;;;;;;;6.85;4.82;;;;;;;;;;5026835;28;20500;-84
2021/11/30 00:41:15;;;;;;;6.32;4.57;;;;;;;;;;5023613;28;20409;-85
2021/11/30 00:43:42;;;;;;;7.60;5.40;;;;;;;;;;5024082;28;20413;-84
2021/11/30 00:46:16;;;;;;;6.97;4.70;;;;;;;;;;5025875;28;20925;-83
2021/11/30 00:48:43;;;;;;;7.80;5.40;;;;;;;;;;5037527;28;20483;-84
2021/11/30 00:51:14;;;;;;;8.70;6.00;;;;;;;;;;5035855;28;20493;-84
2021/11/30 00:53:42;;;;;;;9.18;6.57;;;;;;;;;;5033618;28;20444;-84
2021/11/30 00:56:10;;;;;;;9.18;6.78;;;;;;;;;;5032615;28;20436;-84
2021/11/30 00:58:39;;;;;;;7.85;6.53;;;;;;;;;;5034026;28;20425;-84
2021/11/30 01:01:07;;;;;;;9.43;7.68;;;;;;;;;;5032785;28;20433;-84
2021/11/30 01:03:34;;;;;;;10.30;8.18;;;;;;;;;;5032767;28;20403;-84
2021/11/30 01:06:01;;;;;;;11.45;8.88;;;;;;;;;;5034025;28;20403;-84
2021/11/30 01:08:28;;;;;;;10.60;8.43;;;;;;;;;;5033611;28;20414;-84
2021/11/30 01:10:55;;;;;;;10.60;8.50;;;;;;;;;;5033361;28;20801;-84
2021/11/30 01:13:22;;;;;;;12.18;8.90;;;;;;;;;;5032774;28;20401;-84
2021/11/30 01:15:50;;;;;;;10.68;8.70;;;;;;;;;;5031953;28;20409;-84
2021/11/30 01:18:17;;;;;;;12.82;8.60;;;;;;;;;;5032045;28;21116;-84
2021/11/30 01:20:44;;;;;;;10.93;8.52;;;;;;;;;;5034967;28;20420;-84
2021/11/30 01:23:11;;;;;;;11.38;8.07;;;;;;;;;;5032536;28;20402;-84
2021/11/30 01:25:39;;;;;;;10.32;8.23;;;;;;;;;;5039150;28;20407;-84
2021/11/30 01:28:06;;;;;;;11.82;8.60;;;;;;;;;;5035073;28;20402;-84
2021/11/30 01:30:33;;;;;;;12.35;8.63;;;;;;;;;;5038717;28;20412;-84
2021/11/30 01:33:01;;;;;;;10.93;8.27;;;;;;;;;;5038262;28;20981;-84
2021/11/30 01:35:28;;;;;;;11.98;8.13;;;;;;;;;;5033294;28;20408;-84
2021/11/30 01:37:55;;;;;;;10.32;7.75;;;;;;;;;;5032751;28;20437;-83
2021/11/30 01:40:24;;;;;;;10.25;7.72;;;;;;;;;;5031815;28;20408;-84
2021/11/30 01:42:52;;;;;;;9.80;7.82;;;;;;;;;;5032374;28;20401;-84
2021/11/30 01:45:29;;;;;;;11.77;8.48;;;;;;;;;;5030326;28;20413;-84
2021/11/30 01:50:42;;;;;;;11.13;7.93;;;;;;;;;;5037741;28;20502;-84
2021/11/30 01:53:09;;;;;;;10.60;7.85;;;;;;;;;;5031127;28;20416;-84
2021/11/30 01:55:36;;;;;;;11.00;8.07;;;;;;;;;;5031339;28;20479;-84
2021/11/30 01:58:05;;;;;;;10.65;7.68;;;;;;;;;;5038183;28;20797;-85
2021/11/30 02:00:35;;;;;;;11.02;8.15;;;;;;;;;;5030261;28;20947;-84
2021/11/30 02:03:05;;;;;;;11.77;8.10;;;;;;;;;;5038618;28;20424;-84
2021/11/30 02:05:34;;;;;;;10.60;7.72;;;;;;;;;;5036930;28;20408;-84
2021/11/30 02:08:03;;;;;;;9.93;7.55;;;;;;;;;;5028572;28;20408;-84
2021/11/30 02:10:30;;;;;;;10.27;7.25;;;;;;;;;;5029009;28;20443;-84
2021/11/30 02:12:57;;;;;;;9.43;7.40;;;;;;;;;;5029930;28;20408;-84
2021/11/30 02:15:26;;;;;;;7.78;6.78;;;;;;;;;;5030416;28;20408;-84
2021/11/30 02:17:53;;;;;;;9.38;6.95;;;;;;;;;;5031300;28;20446;-84
2021/11/30 02:20:21;;;;;;;10.47;7.00;;;;;;;;;;5038508;28;20807;-83
2021/11/30 02:22:53;;;;;;;9.70;7.20;;;;;;;;;;5030851;28;21179;-87
2021/11/30 02:25:20;;;;;;;9.10;6.93;;;;;;;;;;5030232;28;20471;-83
2021/11/30 02:27:46;;;;;;;9.30;6.78;;;;;;;;;;5030780;28;20755;-83
2021/11/30 02:30:13;;;;;;;9.70;6.68;;;;;;;;;;5035213;28;20685;-83
2021/11/30 02:32:40;;;;;;;8.95;6.70;;;;;;;;;;5036846;28;20474;-84
2021/11/30 02:35:07;;;;;;;9.95;6.30;;;;;;;;;;5038407;28;20417;-83
2021/11/30 02:37:42;;;;;;;9.27;6.70;;;;;;;;;;5045162;28;20455;-83
2021/11/30 02:40:10;;;;;;;9.23;6.68;;;;;;;;;;5045483;28;20400;-83
2021/11/30 02:42:36;;;;;;;8.75;6.05;;;;;;;;;;5046137;28;20410;-84
2021/11/30 02:45:04;;;;;;;9.15;6.75;;;;;;;;;;5045432;28;20688;-83
2021/11/30 02:47:31;;;;;;;11.18;8.35;;;;;;;;;;5044497;28;20413;-83
2021/11/30 02:49:58;;;;;;;11.90;9.05;;;;;;;;;;5044723;28;20403;-83
2021/11/30 02:52:27;;;;;;;10.32;8.15;;;;;;;;;;5045134;28;20526;-83
2021/11/30 02:54:55;;;;;;;10.15;8.15;;;;;;;;;;5045814;28;20431;-83
2021/11/30 02:57:23;;;;;;;11.02;8.68;;;;;;;;;;5044929;28;20400;-83
2021/11/30 02:59:53;;;;;;;11.35;8.55;;;;;;;;;;5045635;28;21029;-82
2021/11/30 03:02:21;;;;;;;12.93;8.70;;;;;;;;;;5043158;28;20423;-83
2021/11/30 03:04:50;;;;;;;12.55;9.48;;;;;;;;;;5040747;28;20434;-82
2021/11/30 03:07:20;;;;;;;13.33;8.90;;;;;;;;;;5040081;28;21120;-83
2021/11/30 03:09:47;;;;;;;13.15;9.13;;;;;;;;;;5037661;28;21155;-83
2021/11/30 03:12:15;;;;;;;11.70;8.53;;;;;;;;;;5041460;28;20406;-83
2021/11/30 03:14:42;;;;;;;11.77;8.48;;;;;;;;;;5037798;28;20407;-83
2021/11/30 03:17:10;;;;;;;11.38;8.50;;;;;;;;;;5042224;28;20411;-84
2021/11/30 03:19:37;;;;;;;11.52;8.50;;;;;;;;;;5043126;28;20427;-84
2021/11/30 03:22:05;;;;;;;11.23;8.82;;;;;;;;;;5049294;28;20465;-83
2021/11/30 03:24:32;;;;;;;11.45;8.27;;;;;;;;;;5044583;28;20431;-84
2021/11/30 03:26:59;;;;;;;12.20;8.80;;;;;;;;;;5041332;28;20494;-84
2021/11/30 03:29:27;;;;;;;10.73;8.38;;;;;;;;;;5040547;28;20468;-84
2021/11/30 03:32:02;;;;;;;11.73;7.68;;;;;;;;;;5039842;28;20421;-84
2021/11/30 03:34:29;;;;;;;11.55;8.07;;;;;;;;;;5040678;28;20966;-83
2021/11/30 03:36:57;;;;;;;12.13;7.82;;;;;;;;;;5042583;28;20408;-84
2021/11/30 03:39:27;;;;;;;10.93;7.95;;;;;;;;;;5040100;28;20432;-82
2021/11/30 03:41:56;;;;;;;10.87;8.23;;;;;;;;;;5039317;28;20407;-84
2021/11/30 03:44:25;;;;;;;11.32;7.78;;;;;;;;;;5038147;28;20468;-84
2021/11/30 03:46:53;;;;;;;10.77;7.85;;;;;;;;;;5036959;28;20416;-83
2021/11/30 03:49:21;;;;;;;8.82;6.55;;;;;;;;;;5038198;28;20458;-84
2021/11/30 03:51:48;;;;;;;9.00;6.50;;;;;;;;;;5038442;28;20456;-83
2021/11/30 03:54:16;;;;;;;9.27;6.30;;;;;;;;;;5038095;28;20404;-83
2021/11/30 03:56:43;;;;;;;9.40;6.30;;;;;;;;;;5035223;28;20417;-83
2021/11/30 03:59:11;;;;;;;9.15;7.10;;;;;;;;;;5037530;28;20427;-83
2021/11/30 04:01:37;;;;;;;9.30;6.70;;;;;;;;;;5035112;28;20773;-84
2021/11/30 04:04:11;;;;;;;8.43;6.10;;;;;;;;;;5035015;28;20905;-83
2021/11/30 04:06:38;;;;;;;7.97;6.10;;;;;;;;;;5040761;28;20469;-83
2021/11/30 04:09:05;;;;;;;10.43;6.40;;;;;;;;;;5036266;28;20401;-83
2021/11/30 04:11:33;;;;;;;8.55;6.15;;;;;;;;;;5037128;28;20766;-84
2021/11/30 04:14:00;;;;;;;8.13;5.90;;;;;;;;;;5036854;28;20814;-83
2021/11/30 04:16:26;;;;;;;8.17;5.50;;;;;;;;;;5036509;28;20409;-80
2021/11/30 04:18:53;;;;;;;7.30;5.60;;;;;;;;;;5037522;28;20425;-83
2021/11/30 04:21:22;;;;;;;8.68;5.80;;;;;;;;;;5038196;28;20409;-84
2021/11/30 04:23:49;;;;;;;6.57;5.32;;;;;;;;;;5038119;28;20954;-83
2021/11/30 04:26:16;;;;;;;7.63;5.50;;;;;;;;;;5034394;28;20821;-83
2021/11/30 04:28:44;;;;;;;7.95;5.63;;;;;;;;;;5035631;28;20406;-83
2021/11/30 04:31:11;;;;;;;8.88;5.88;;;;;;;;;;5037943;28;20411;-83
2021/11/30 04:33:37;;;;;;;7.22;5.30;;;;;;;;;;5035602;28;20417;-83
2021/11/30 04:36:06;;;;;;;8.07;5.50;;;;;;;;;;5038515;28;20424;-83
2021/11/30 04:38:35;;;;;;;6.65;5.03;;;;;;;;;;5036277;28;20418;-84
2021/11/30 04:41:02;;;;;;;6.88;5.63;;;;;;;;;;5035991;28;20396;-84
2021/11/30 04:43:34;;;;;;;7.78;5.68;;;;;;;;;;5036252;28;20404;-83
2021/11/30 04:46:05;;;;;;;6.90;5.72;;;;;;;;;;5036069;28;20896;-84
2021/11/30 04:48:34;;;;;;;8.23;5.90;;;;;;;;;;5036994;28;20401;-84
2021/11/30 04:51:02;;;;;;;8.15;5.68;;;;;;;;;;5038939;28;20458;-83
2021/11/30 04:53:31;;;;;;;8.45;6.00;;;;;;;;;;5034480;28;20595;-84
2021/11/30 04:56:00;;;;;;;7.65;5.55;;;;;;;;;;5036594;28;21004;-83
2021/11/30 04:58:27;;;;;;;7.78;5.75;;;;;;;;;;5034212;28;20433;-80
2021/11/30 05:00:54;;;;;;;7.95;5.93;;;;;;;;;;5034255;28;20902;-84
2021/11/30 05:03:20;;;;;;;6.93;6.13;;;;;;;;;;5035944;28;20407;-84
2021/11/30 05:05:47;;;;;;;8.02;6.20;;;;;;;;;;5042837;28;20450;-84
2021/11/30 05:08:14;;;;;;;7.45;5.97;;;;;;;;;;5040436;28;20403;-84
2021/11/30 05:10:41;;;;;;;8.27;6.00;;;;;;;;;;5040968;28;20757;-83
2021/11/30 05:13:09;;;;;;;8.18;6.20;;;;;;;;;;5044170;28;20403;-84
2021/11/30 05:15:36;;;;;;;9.73;6.50;;;;;;;;;;5045304;28;20414;-84
2021/11/30 05:18:04;;;;;;;7.85;5.78;;;;;;;;;;5044472;28;20422;-83
2021/11/30 05:20:31;;;;;;;7.70;5.70;;;;;;;;;;5043560;28;20419;-84
2021/11/30 05:22:58;;;;;;;7.93;5.60;;;;;;;;;;5035853;28;20405;-83
2021/11/30 05:25:32;;;;;;;8.95;6.32;;;;;;;;;;5025110;28;21395;-83
2021/11/30 05:28:00;;;;;;;8.77;5.60;;;;;;;;;;5026121;28;20423;-84
2021/11/30 05:30:35;;;;;;;8.15;5.80;;;;;;;;;;5025747;28;20397;-84
2021/11/30 05:33:03;;;;;;;10.18;6.25;;;;;;;;;;5025421;28;20479;-84
2021/11/30 05:35:30;;;;;;;9.52;6.22;;;;;;;;;;5030115;28;20438;-84
2021/11/30 05:37:57;;;;;;;8.48;6.22;;;;;;;;;;5025338;28;20413;-84
2021/11/30 05:40:24;;;;;;;8.05;6.28;;;;;;;;;;5025010;28;20428;-83
2021/11/30 05:42:51;;;;;;;7.93;5.85;;;;;;;;;;5025568;28;20397;-84
2021/11/30 05:45:17;;;;;;;12.32;6.18;;;;;;;;;;5024369;28;20409;-84
2021/11/30 05:47:46;;;;;;;9.80;7.32;;;;;;;;;;5025146;28;20418;-84
2021/11/30 05:50:12;;;;;;;12.20;7.10;;;;;;;;;;5025615;28;20407;-83
2021/11/30 05:52:39;;;;;;;10.52;6.72;;;;;;;;;;5040618;28;20407;-84
2021/11/30 05:55:07;;;;;;;10.87;7.67;;;;;;;;;;5043352;28;21248;-84
2021/11/30 05:57:34;;;;;;;10.52;7.90;;;;;;;;;;5030052;28;20405;-83
2021/11/30 06:00:02;;;;;;;9.95;7.07;;;;;;;;;;5025184;28;20437;-83
2021/11/30 06:02:31;;;;;;;11.53;6.80;;;;;;;;;;5029785;28;20524;-84
2021/11/30 06:04:59;;;;;;;9.80;6.97;;;;;;;;;;5028814;28;20419;-85
2021/11/30 06:07:26;;;;;;;10.15;6.55;;;;;;;;;;5041213;28;20404;-83
2021/11/30 06:09:52;;;;;;;8.65;6.50;;;;;;;;;;5035783;28;20408;-82
2021/11/30 06:12:19;;;;;;;13.43;7.18;;;;;;;;;;5040427;28;20419;-83
2021/11/30 06:14:46;;;;;;;12.40;8.00;;;;;;;;;;5031624;28;20412;-84
2021/11/30 06:17:14;;;;;;;14.77;9.35;;;;;;;;;;5035223;28;20901;-84
2021/11/30 06:19:41;;;;;;;13.13;8.98;;;;;;;;;;5031499;28;20428;-84
2021/11/30 06:22:11;;;;;;;11.02;8.02;;;;;;;;;;5040089;28;20407;-84
2021/11/30 06:24:38;;;;;;;10.32;7.70;;;;;;;;;;5038986;28;20400;-84
2021/11/30 06:27:05;;;;;;;13.85;8.02;;;;;;;;;;5029359;28;20424;-84
2021/11/30 06:29:32;;;;;;;10.88;7.80;;;;;;;;;;5034442;28;20393;-83
2021/11/30 06:31:59;;;;;;;10.48;7.70;;;;;;;;;;5036279;28;20416;-84
2021/11/30 06:34:25;;;;;;;10.50;7.78;;;;;;;;;;5031688;28;20404;-84
2021/11/30 06:36:52;;;;;;;12.27;8.00;;;;;;;;;;5036044;28;20426;-83
2021/11/30 06:39:20;;;;;;;11.82;7.95;;;;;;;;;;5027906;28;21279;-86
2021/11/30 06:41:47;;;;;;;10.48;7.10;;;;;;;;;;5036471;28;20400;-84
2021/11/30 06:44:14;;;;;;;14.45;10.00;;;;;;;;;;5031080;28;20431;-85
2021/11/30 06:46:41;;;;;;;28.73;20.50;;;;;;;;;;5029452;28;20409;-83
2021/11/30 06:49:08;;;;;;;158.18;102.13;;;;;;;;;;5028829;28;20412;-83
2021/11/30 06:51:35;;;;;;;27.38;18.88;;;;;;;;;;5035454;28;20408;-83
2021/11/30 06:54:01;;;;;;;18.48;12.30;;;;;;;;;;5042646;28;20768;-83
2021/11/30 06:56:30;;;;;;;20.52;14.02;;;;;;;;;;5042005;28;20404;-77
2021/11/30 06:58:57;;;;;;;24.43;14.70;;;;;;;;;;5043254;28;20396;-83
2021/11/30 07:01:27;;;;;;;48.90;25.55;;;;;;;;;;5036463;28;20526;-83
2021/11/30 07:03:53;;;;;;;36.17;19.70;;;;;;;;;;5033596;28;20424;-83
2021/11/30 07:06:26;;;;;;;33.08;18.15;;;;;;;;;;5025398;28;20420;-83
2021/11/30 07:08:57;;;;;;;56.65;28.27;;;;;;;;;;5035010;28;20407;-83
2021/11/30 07:11:46;;;;;;;21.90;13.02;;;;;;;;;;5035574;28;20753;-83
2021/11/30 07:14:15;;;;;;;67.88;31.33;;;;;;;;;;5026482;28;20398;-83
2021/11/30 07:16:42;;;;;;;124.70;51.45;;;;;;;;;;5026894;28;20413;-83
2021/11/30 07:19:09;;;;;;;153.02;60.47;;;;;;;;;;5037923;28;20419;-83
2021/11/30 07:21:36;;;;;;;35.00;15.45;;;;;;;;;;5035507;28;20416;-83
2021/11/30 07:24:03;;;;;;;10.90;6.85;;;;;;;;;;5028360;28;20402;-83
2021/11/30 07:26:30;;;;;;;13.63;8.20;;;;;;;;;;5028755;28;20463;-83
2021/11/30 07:28:57;;;;;;;12.13;8.10;;;;;;;;;;5028848;28;20409;-83
2021/11/30 07:31:26;;;;;;;34.47;16.30;;;;;;;;;;5028286;28;20413;-83
2021/11/30 07:33:53;;;;;;;84.37;41.43;;;;;;;;;;5028246;28;20494;-83
2021/11/30 07:36:20;;;;;;;37.38;18.55;;;;;;;;;;5030164;28;20963;-83
2021/11/30 07:38:49;;;;;;;88.07;38.75;;;;;;;;;;5028632;28;20401;-83
2021/11/30 07:41:17;;;;;;;185.65;79.60;;;;;;;;;;5027883;28;20425;-83
2021/11/30 07:43:44;;;;;;;318.75;139.32;;;;;;;;;;5043469;28;20410;-83
2021/11/30 07:46:11;;;;;;;16.35;9.77;;;;;;;;;;5027916;28;20405;-83
2021/11/30 07:48:39;;;;;;;16.83;10.10;;;;;;;;;;5028270;28;20412;-83
2021/11/30 07:51:07;;;;;;;138.32;57.85;;;;;;;;;;5030658;28;20409;-84
2021/11/30 07:53:36;;;;;;;14.77;10.23;;;;;;;;;;5028383;28;20413;-84
2021/11/30 07:56:03;;;;;;;15.45;9.65;;;;;;;;;;5028520;28;20408;-85
2021/11/30 07:58:29;;;;;;;13.85;9.10;;;;;;;;;;5033444;28;20412;-83
2021/11/30 08:00:56;;;;;;;27.42;22.60;;;;;;;;;;5039622;28;20419;-83
2021/11/30 08:03:23;;;;;;;20.30;15.93;;;;;;;;;;5040449;28;20414;-83
2021/11/30 08:05:51;;;;;;;10.80;7.38;;;;;;;;;;5031833;28;20401;-83
2021/11/30 08:08:18;;;;;;;16.15;14.45;;;;;;;;;;5028031;28;20410;-83
2021/11/30 08:10:45;;;;;;;11.95;7.97;;;;;;;;;;5028643;28;20402;-84
2021/11/30 08:13:12;;;;;;;15.10;8.35;;;;;;;;;;5028033;28;20397;-83
2021/11/30 08:15:39;;;;;;;9.30;5.88;;;;;;;;;;5028578;28;20942;-83
2021/11/30 08:18:07;;;;;;;9.75;6.63;;;;;;;;;;5031428;28;20425;-83
2021/11/30 08:20:34;;;;;;;10.88;6.50;;;;;;;;;;5031780;28;20424;-83
2021/11/30 08:23:03;;;;;;;9.43;7.05;;;;;;;;;;5028591;28;20911;-83
2021/11/30 08:25:30;;;;;;;10.73;6.75;;;;;;;;;;5028922;28;20409;-84
2021/11/30 08:27:58;;;;;;;12.10;9.35;;;;;;;;;;5029325;28;20432;-83
2021/11/30 08:30:25;;;;;;;11.10;6.50;;;;;;;;;;5036463;28;20821;-83
2021/11/30 08:32:52;;;;;;;13.13;6.13;;;;;;;;;;5046239;28;20407;-83
2021/11/30 08:35:19;;;;;;;7.65;5.43;;;;;;;;;;5038785;28;20467;-82
2021/11/30 08:37:45;;;;;;;8.10;5.22;;;;;;;;;;5042775;28;20459;-84
2021/11/30 08:40:14;;;;;;;9.95;5.40;;;;;;;;;;5040845;28;20424;-83
2021/11/30 08:42:42;;;;;;;9.65;5.68;;;;;;;;;;5042049;28;20418;-82
2021/11/30 08:45:10;;;;;;;13.93;9.73;;;;;;;;;;5044308;28;20405;-83
2021/11/30 08:47:38;;;;;;;10.32;6.57;;;;;;;;;;5044283;28;20426;-84
2021/11/30 08:50:08;;;;;;;10.38;6.00;;;;;;;;;;5043750;28;20403;-83
2021/11/30 08:52:36;;;;;;;10.20;6.32;;;;;;;;;;5037423;28;20423;-83
2021/11/30 08:55:04;;;;;;;10.80;6.50;;;;;;;;;;5044382;28;20427;-83
2021/11/30 08:57:32;;;;;;;11.45;6.82;;;;;;;;;;5044421;28;20444;-83
2021/11/30 08:59:59;;;;;;;10.07;5.65;;;;;;;;;;5043824;28;20419;-83
2021/11/30 09:02:27;;;;;;;8.85;5.60;;;;;;;;;;5043614;28;21047;-83
2021/11/30 09:04:54;;;;;;;10.10;5.72;;;;;;;;;;5043312;28;20407;-84
2021/11/30 09:07:20;;;;;;;9.60;5.30;;;;;;;;;;5028387;28;20405;-83
2021/11/30 09:09:48;;;;;;;9.03;5.90;;;;;;;;;;5028289;28;20402;-84
2021/11/30 09:12:17;;;;;;;10.02;6.13;;;;;;;;;;5037560;28;20500;-83
2021/11/30 09:14:46;;;;;;;9.40;6.10;;;;;;;;;;5050014;28;20461;-84
2021/11/30 09:17:13;;;;;;;12.80;5.95;;;;;;;;;;5053027;28;20427;-83
2021/11/30 09:19:40;;;;;;;9.15;6.28;;;;;;;;;;5034368;28;20919;-82
2021/11/30 09:22:07;;;;;;;8.73;5.72;;;;;;;;;;5030632;28;20418;-85
2021/11/30 09:24:34;;;;;;;11.10;6.50;;;;;;;;;;5028037;28;20405;-84
2021/11/30 09:27:01;;;;;;;9.70;7.00;;;;;;;;;;5028164;28;20409;-84
2021/11/30 09:29:28;;;;;;;10.73;7.07;;;;;;;;;;5028291;28;20410;-84
2021/11/30 09:31:56;;;;;;;10.77;7.18;;;;;;;;;;5031257;28;20419;-84
2021/11/30 09:34:24;;;;;;;11.65;6.85;;;;;;;;;;5037201;28;20808;-84
2021/11/30 09:36:53;;;;;;;10.10;6.88;;;;;;;;;;5042399;28;20440;-83
2021/11/30 09:39:20;;;;;;;10.65;7.15;;;;;;;;;;5039166;28;20434;-84
2021/11/30 09:41:48;;;;;;;9.75;6.20;;;;;;;;;;5027498;28;20429;-84
2021/11/30 09:44:16;;;;;;;12.25;6.28;;;;;;;;;;5040038;28;20412;-84
2021/11/30 09:46:44;;;;;;;9.85;5.72;;;;;;;;;;5030368;28;20416;-84
2021/11/30 09:49:13;;;;;;;12.50;6.38;;;;;;;;;;5027390;28;20402;-83
2021/11/30 09:51:40;;;;;;;10.25;6.10;;;;;;;;;;5030716;28;20415;-82
2021/11/30 09:54:07;;;;;;;10.40;6.22;;;;;;;;;;5027427;28;20451;-83
2021/11/30 09:56:34;;;;;;;8.57;6.60;;;;;;;;;;5028185;28;20404;-83
2021/11/30 09:59:01;;;;;;;9.35;7.05;;;;;;;;;;5027825;28;20416;-83
2021/11/30 10:01:28;;;;;;;10.60;7.10;;;;;;;;;;5033783;28;20428;-84
2021/11/30 10:03:54;;;;;;;8.95;6.40;;;;;;;;;;5041779;28;20404;-83
2021/11/30 10:06:23;;;;;;;7.20;5.60;;;;;;;;;;5042043;28;20892;-83
2021/11/30 10:08:54;;;;;;;8.10;5.00;;;;;;;;;;5035692;28;20407;-83
2021/11/30 10:11:32;;;;;;;8.27;5.03;;;;;;;;;;5027731;28;20820;-83
2021/11/30 10:14:25;;;;;;;8.13;5.22;;;;;;;;;;5040363;28;20400;-83
2021/11/30 10:17:16;;;;;;;7.00;5.25;;;;;;;;;;5018479;28;20413;-83
2021/11/30 10:19:51;;;;;;;7.03;4.78;;;;;;;;;;5041679;28;21118;-83
2021/11/30 10:22:35;;;;;;;7.45;4.95;;;;;;;;;;5029767;28;21368;-84
2021/11/30 10:25:10;;;;;;;8.13;5.38;;;;;;;;;;5027728;28;20956;-82
2021/11/30 10:27:41;;;;;;;8.60;4.60;;;;;;;;;;5027827;28;20401;-83
2021/11/30 10:30:13;;;;;;;8.27;5.13;;;;;;;;;;5027698;28;20496;-83
2021/11/30 10:32:43;;;;;;;7.63;5.47;;;;;;;;;;5027938;28;20425;-83
2021/11/30 10:35:10;;;;;;;6.47;5.17;;;;;;;;;;5028542;28;20419;-83
2021/11/30 10:37:42;;;;;;;6.63;4.90;;;;;;;;;;5034331;28;20420;-83
2021/11/30 10:40:11;;;;;;;5.67;3.93;;;;;;;;;;5036857;28;20405;-83
2021/11/30 10:42:45;;;;;;;5.40;4.00;;;;;;;;;;5040970;28;20413;-84
2021/11/30 10:45:23;;;;;;;7.30;5.13;;;;;;;;;;5040502;28;20904;-83
2021/11/30 10:47:50;;;;;;;6.20;4.50;;;;;;;;;;5040969;28;20746;-83
2021/11/30 10:50:22;;;;;;;5.95;4.13;;;;;;;;;;5041742;28;20419;-83
2021/11/30 10:52:52;;;;;;;6.57;3.80;;;;;;;;;;5030508;28;20792;-83
2021/11/30 10:55:20;;;;;;;8.63;3.80;;;;;;;;;;5034018;28;20482;-83
2021/11/30 10:57:49;;;;;;;9.27;5.25;;;;;;;;;;5039598;28;20413;-83
2021/11/30 11:00:22;;;;;;;10.13;5.32;;;;;;;;;;5037299;28;20415;-84
2021/11/30 11:02:55;;;;;;;6.83;4.53;;;;;;;;;;5031454;28;20470;-83
2021/11/30 11:05:25;;;;;;;9.77;4.90;;;;;;;;;;5038811;28;20417;-83
2021/11/30 11:08:01;;;;;;;6.32;4.07;;;;;;;;;;5031979;28;20409;-83
2021/11/30 11:10:29;;;;;;;4.78;3.50;;;;;;;;;;5042823;28;20408;-83
2021/11/30 11:12:55;;;;;;;6.68;3.53;;;;;;;;;;5044404;28;20408;-83
2021/11/30 11:15:46;;;;;;;3.88;2.75;;;;;;;;;;5043933;28;20774;-83
2021/11/30 11:18:21;;;;;;;3.97;2.70;;;;;;;;;;5016347;28;20403;-83
2021/11/30 11:20:50;;;;;;;4.43;2.92;;;;;;;;;;5037333;28;21107;-83
2021/11/30 11:23:25;;;;;;;3.88;2.40;;;;;;;;;;5030731;28;20844;-83
2021/11/30 11:25:53;;;;;;;4.72;3.00;;;;;;;;;;5034402;28;20412;-83
2021/11/30 11:28:23;;;;;;;4.00;2.60;;;;;;;;;;5030016;28;20441;-83
2021/11/30 11:30:51;;;;;;;4.25;2.63;;;;;;;;;;5041085;28;20399;-83
2021/11/30 11:33:18;;;;;;;4.28;2.60;;;;;;;;;;5041340;28;20410;-83
2021/11/30 11:35:45;;;;;;;3.70;2.67;;;;;;;;;;5040518;28;20464;-82
2021/11/30 11:38:13;;;;;;;3.93;2.70;;;;;;;;;;5043148;28;20432;-83
2021/11/30 11:40:44;;;;;;;3.70;2.72;;;;;;;;;;5043096;28;21223;-84
2021/11/30 11:43:11;;;;;;;4.32;3.15;;;;;;;;;;5034410;28;20407;-83
2021/11/30 11:45:38;;;;;;;4.00;3.17;;;;;;;;;;5031886;28;20465;-83
2021/11/30 11:48:07;;;;;;;4.15;3.05;;;;;;;;;;5031393;28;20436;-83
2021/11/30 11:50:52;;;;;;;4.10;3.00;;;;;;;;;;5034022;28;20407;-83
2021/11/30 11:53:28;;;;;;;3.93;3.10;;;;;;;;;;5039115;28;20415;-83
2021/11/30 11:56:16;;;;;;;4.15;3.28;;;;;;;;;;5039970;28;20407;-83
2021/11/30 11:58:45;;;;;;;3.75;2.90;;;;;;;;;;5030670;28;20400;-83
2021/11/30 12:01:24;;;;;;;5.35;3.03;;;;;;;;;;5040285;28;20421;-83
2021/11/30 12:04:01;;;;;;;4.53;3.13;;;;;;;;;;5031016;28;20413;-83
2021/11/30 12:06:30;;;;;;;6.10;3.25;;;;;;;;;;5032681;28;20401;-84
2021/11/30 12:09:14;;;;;;;5.05;3.03;;;;;;;;;;5031720;28;20909;-84
2021/11/30 12:11:44;;;;;;;4.20;2.90;;;;;;;;;;5030313;28;20412;-84
2021/11/30 12:14:13;;;;;;;5.15;3.50;;;;;;;;;;5031109;28;20784;-79
2021/11/30 12:17:07;;;;;;;4.65;3.45;;;;;;;;;;5032902;28;20444;-82
2021/11/30 12:19:37;;;;;;;6.30;3.63;;;;;;;;;;5038143;28;20410;-83
2021/11/30 12:22:04;;;;;;;4.75;3.40;;;;;;;;;;5038224;28;20425;-82
2021/11/30 12:24:38;;;;;;;3.63;3.20;;;;;;;;;;5034374;28;20539;-83
2021/11/30 12:27:42;;;;;;;4.57;3.30;;;;;;;;;;5033621;28;20411;-83
2021/11/30 12:30:46;;;;;;;5.30;2.75;;;;;;;;;;5034279;28;20412;-81
2021/11/30 12:33:16;;;;;;;4.47;2.97;;;;;;;;;;5033372;28;20400;-82
2021/11/30 12:35:53;;;;;;;4.50;2.80;;;;;;;;;;5038423;28;20407;-82
2021/11/30 12:38:27;;;;;;;5.00;2.60;;;;;;;;;;5036678;28;20419;-82
2021/11/30 12:40:54;;;;;;;6.28;2.47;;;;;;;;;;5035423;28;20401;-82
2021/11/30 12:43:28;;;;;;;5.88;2.72;;;;;;;;;;5032908;28;20423;-82
2021/11/30 12:45:56;;;;;;;4.68;2.67;;;;;;;;;;5032174;28;20405;-82
2021/11/30 12:48:34;;;;;;;4.32;2.78;;;;;;;;;;5030983;28;20409;-82
2021/11/30 12:51:23;;;;;;;5.53;2.35;;;;;;;;;;5039181;28;20438;-83
2021/11/30 12:53:51;;;;;;;5.43;2.53;;;;;;;;;;5037057;28;20873;-82
2021/11/30 12:56:46;;;;;;;3.60;2.33;;;;;;;;;;5035682;28;20879;-82
2021/11/30 12:59:36;;;;;;;3.55;2.35;;;;;;;;;;5034316;28;20487;-82
2021/11/30 13:02:16;;;;;;;4.80;2.42;;;;;;;;;;5035379;28;20521;-83
2021/11/30 13:04:43;;;;;;;3.53;2.28;;;;;;;;;;5031918;28;20412;-83
2021/11/30 13:07:12;;;;;;;5.38;3.10;;;;;;;;;;5036187;28;20461;-82
2021/11/30 13:09:41;;;;;;;4.90;2.38;;;;;;;;;;5034289;28;20408;-82
2021/11/30 13:12:11;;;;;;;4.15;2.47;;;;;;;;;;5034267;28;20407;-81
2021/11/30 13:14:43;;;;;;;5.80;2.80;;;;;;;;;;5032304;28;20502;-81
2021/11/30 13:17:10;;;;;;;4.68;2.90;;;;;;;;;;5032535;28;20410;-81
2021/11/30 13:19:39;;;;;;;4.43;2.97;;;;;;;;;;5030246;28;20459;-81
2021/11/30 13:22:09;;;;;;;4.03;2.92;;;;;;;;;;5034028;28;20896;-81
2021/11/30 13:24:37;;;;;;;4.25;2.63;;;;;;;;;;5034606;28;20396;-82
2021/11/30 13:27:13;;;;;;;4.68;3.10;;;;;;;;;;5031925;28;20403;-82
2021/11/30 13:29:52;;;;;;;3.90;2.78;;;;;;;;;;5037167;28;20405;-84
2021/11/30 13:32:23;;;;;;;4.75;3.00;;;;;;;;;;5037939;28;20435;-84
2021/11/30 13:35:08;;;;;;;4.00;2.45;;;;;;;;;;5033692;28;20492;-84
2021/11/30 13:37:37;;;;;;;5.70;2.80;;;;;;;;;;5036174;28;20395;-84
2021/11/30 13:40:08;;;;;;;4.72;2.50;;;;;;;;;;5038959;28;20470;-84
2021/11/30 13:42:48;;;;;;;9.68;3.55;;;;;;;;;;5040557;28;20494;-84
2021/11/30 13:45:17;;;;;;;4.70;2.78;;;;;;;;;;5040533;28;20416;-83
2021/11/30 13:47:48;;;;;;;4.47;2.67;;;;;;;;;;5037905;28;20404;-83
2021/11/30 13:50:15;;;;;;;5.05;2.95;;;;;;;;;;5039140;28;20400;-83
2021/11/30 13:52:42;;;;;;;3.67;2.80;;;;;;;;;;5035337;28;20415;-83
2021/11/30 13:55:09;;;;;;;5.82;4.10;;;;;;;;;;5039769;28;20404;-84
2021/11/30 13:57:36;;;;;;;6.13;4.50;;;;;;;;;;5038259;28;20426;-84
2021/11/30 14:00:12;;;;;;;4.75;3.17;;;;;;;;;;5037487;28;20469;-84
2021/11/30 14:02:42;;;;;;;4.15;2.40;;;;;;;;;;5038823;28;20426;-83
2021/11/30 14:05:11;;;;;;;65.32;36.50;;;;;;;;;;5038393;28;20404;-84
2021/11/30 14:07:38;;;;;;;8.48;4.75;;;;;;;;;;5037840;28;20420;-83
2021/11/30 14:10:16;;;;;;;15.07;9.27;;;;;;;;;;5040445;28;20414;-83
2021/11/30 14:12:43;;;;;;;3.72;2.80;;;;;;;;;;5040079;28;20405;-83
2021/11/30 14:15:10;;;;;;;5.72;3.03;;;;;;;;;;5039812;28;20953;-84
2021/11/30 14:17:39;;;;;;;4.53;2.17;;;;;;;;;;5039519;28;20407;-83
2021/11/30 14:20:18;;;;;;;5.93;3.30;;;;;;;;;;5038156;28;20489;-83
2021/11/30 14:22:46;;;;;;;2.65;2.22;;;;;;;;;;5039459;28;20476;-83
2021/11/30 14:25:14;;;;;;;3.97;2.40;;;;;;;;;;5037128;28;20501;-83
2021/11/30 14:27:44;;;;;;;3.63;2.20;;;;;;;;;;5038832;28;21812;-83
2021/11/30 14:30:13;;;;;;;3.78;2.17;;;;;;;;;;5040172;28;20446;-83
2021/11/30 14:32:40;;;;;;;14.65;7.95;;;;;;;;;;5038819;28;20446;-83
2021/11/30 14:35:10;;;;;;;9.50;4.93;;;;;;;;;;5039012;28;20415;-82
2021/11/30 14:37:38;;;;;;;5.60;3.37;;;;;;;;;;5031813;28;20478;-83
2021/11/30 14:40:17;;;;;;;4.55;3.35;;;;;;;;;;5032676;28;20405;-83
2021/11/30 14:42:46;;;;;;;5.37;3.40;;;;;;;;;;5028073;28;20915;-83
2021/11/30 14:45:43;;;;;;;5.30;3.60;;;;;;;;;;5027469;28;20460;-83
2021/11/30 14:48:13;;;;;;;7.57;5.70;;;;;;;;;;5016696;28;20428;-83
2021/11/30 14:50:45;;;;;;;4.97;3.42;;;;;;;;;;5029943;28;20408;-83
2021/11/30 14:53:16;;;;;;;12.25;8.57;;;;;;;;;;5028176;28;20772;-83